sensor_id;sensor_type;location;lat;lon;timestamp;P1;durP1;ratioP1;P2;durP2;ratioP2
15474;SDS011;7839;50.462;9.678;2022-08-11T00:00:40;0.90;;;0.90;;
15474;SDS011;7839;50.462;9.678;2022-08-11T00:07:23;0.65;;;0.65;;
15474;SDS011;7839;50.462;9.678;2022-08-11T00:14:04;1.00;;;1.00;;
15474;SDS011;7839;50.462;9.678;2022-08-11T00:20:51;0.90;;;0.90;;
15474;SDS011;7839;50.462;9.678;2022-08-11T00:27:38;1.00;;;1.00;;
15474;SDS011;7839;50.462;9.678;2022-08-11T00:34:19;0.80;;;0.80;;
15474;SDS011;7839;50.462;9.678;2022-08-11T00:54:44;1.13;;;0.85;;
15474;SDS011;7839;50.462;9.678;2022-08-11T01:08:36;0.75;;;0.75;;
15474;SDS011;7839;50.462;9.678;2022-08-11T01:15:32;1.30;;;0.70;;
15474;SDS011;7839;50.462;9.678;2022-08-11T01:22:18;0.77;;;0.77;;
15474;SDS011;7839;50.462;9.678;2022-08-11T01:56:57;0.80;;;0.80;;
15474;SDS011;7839;50.462;9.678;2022-08-11T02:03:58;0.75;;;0.75;;
15474;SDS011;7839;50.462;9.678;2022-08-11T02:11:04;0.90;;;0.90;;
15474;SDS011;7839;50.462;9.678;2022-08-11T02:18:09;0.80;;;0.80;;
15474;SDS011;7839;50.462;9.678;2022-08-11T02:24:58;0.63;;;0.63;;
15474;SDS011;7839;50.462;9.678;2022-08-11T02:31:41;0.50;;;0.50;;
15474;SDS011;7839;50.462;9.678;2022-08-11T02:52:40;0.90;;;0.90;;
15474;SDS011;7839;50.462;9.678;2022-08-11T03:06:40;0.80;;;0.80;;
15474;SDS011;7839;50.462;9.678;2022-08-11T03:13:27;0.63;;;0.63;;
15474;SDS011;7839;50.462;9.678;2022-08-11T03:20:30;0.50;;;0.50;;
15474;SDS011;7839;50.462;9.678;2022-08-11T03:27:20;0.70;;;0.70;;
15474;SDS011;7839;50.462;9.678;2022-08-11T03:34:05;0.65;;;0.65;;
15474;SDS011;7839;50.462;9.678;2022-08-11T03:41:00;0.70;;;0.70;;
15474;SDS011;7839;50.462;9.678;2022-08-11T03:54:53;0.43;;;0.43;;
15474;SDS011;7839;50.462;9.678;2022-08-11T04:01:53;0.63;;;0.63;;
15474;SDS011;7839;50.462;9.678;2022-08-11T05:05:20;0.63;;;0.63;;
15474;SDS011;7839;50.462;9.678;2022-08-11T05:12:14;0.80;;;0.80;;
15474;SDS011;7839;50.462;9.678;2022-08-11T05:18:59;0.80;;;0.80;;
15474;SDS011;7839;50.462;9.678;2022-08-11T05:25:59;0.80;;;0.80;;
15474;SDS011;7839;50.462;9.678;2022-08-11T05:33:04;0.77;;;0.77;;
15474;SDS011;7839;50.462;9.678;2022-08-11T05:47:02;0.85;;;0.85;;
15474;SDS011;7839;50.462;9.678;2022-08-11T05:54:02;1.05;;;0.80;;
15474;SDS011;7839;50.462;9.678;2022-08-11T06:01:01;0.75;;;0.75;;
15474;SDS011;7839;50.462;9.678;2022-08-11T06:07:43;0.98;;;0.98;;
15474;SDS011;7839;50.462;9.678;2022-08-11T06:14:25;0.88;;;0.88;;
15474;SDS011;7839;50.462;9.678;2022-08-11T06:21:08;0.70;;;0.70;;
15474;SDS011;7839;50.462;9.678;2022-08-11T06:27:53;3.25;;;2.95;;
15474;SDS011;7839;50.462;9.678;2022-08-11T06:41:45;2.80;;;1.95;;
15474;SDS011;7839;50.462;9.678;2022-08-11T06:48:29;3.13;;;2.72;;
15474;SDS011;7839;50.462;9.678;2022-08-11T06:55:11;7.33;;;3.33;;
15474;SDS011;7839;50.462;9.678;2022-08-11T07:15:34;5.07;;;3.10;;
15474;SDS011;7839;50.462;9.678;2022-08-11T07:22:22;7.80;;;3.40;;
15474;SDS011;7839;50.462;9.678;2022-08-11T07:29:21;3.90;;;3.60;;
15474;SDS011;7839;50.462;9.678;2022-08-11T07:36:02;2.03;;;1.93;;
15474;SDS011;7839;50.462;9.678;2022-08-11T07:42:43;3.10;;;2.53;;
15474;SDS011;7839;50.462;9.678;2022-08-11T07:49:25;6.33;;;3.50;;
15474;SDS011;7839;50.462;9.678;2022-08-11T07:56:24;7.60;;;3.27;;
15474;SDS011;7839;50.462;9.678;2022-08-11T08:03:05;5.47;;;3.10;;
15474;SDS011;7839;50.462;9.678;2022-08-11T08:10:07;6.00;;;3.10;;
15474;SDS011;7839;50.462;9.678;2022-08-11T08:17:06;3.33;;;2.93;;
15474;SDS011;7839;50.462;9.678;2022-08-11T08:24:06;6.40;;;3.13;;
15474;SDS011;7839;50.462;9.678;2022-08-11T08:30:46;4.00;;;2.87;;
15474;SDS011;7839;50.462;9.678;2022-08-11T08:37:31;5.60;;;2.57;;
15474;SDS011;7839;50.462;9.678;2022-08-11T08:44:12;4.75;;;2.70;;
15474;SDS011;7839;50.462;9.678;2022-08-11T08:50:55;3.70;;;2.60;;
15474;SDS011;7839;50.462;9.678;2022-08-11T08:57:55;6.22;;;2.63;;
15474;SDS011;7839;50.462;9.678;2022-08-11T09:04:39;2.80;;;2.60;;
15474;SDS011;7839;50.462;9.678;2022-08-11T09:11:21;6.38;;;2.75;;
15474;SDS011;7839;50.462;9.678;2022-08-11T09:18:20;5.20;;;2.50;;
15474;SDS011;7839;50.462;9.678;2022-08-11T09:25:00;3.28;;;2.10;;
15474;SDS011;7839;50.462;9.678;2022-08-11T09:31:59;3.65;;;2.25;;
15474;SDS011;7839;50.462;9.678;2022-08-11T09:38:40;2.85;;;2.38;;
15474;SDS011;7839;50.462;9.678;2022-08-11T09:45:39;3.30;;;2.20;;
15474;SDS011;7839;50.462;9.678;2022-08-11T09:52:19;3.15;;;2.85;;
15474;SDS011;7839;50.462;9.678;2022-08-11T09:59:02;1.70;;;1.60;;
15474;SDS011;7839;50.462;9.678;2022-08-11T10:05:45;2.60;;;2.40;;
15474;SDS011;7839;50.462;9.678;2022-08-11T10:12:46;2.83;;;2.60;;
15474;SDS011;7839;50.462;9.678;2022-08-11T10:19:27;2.30;;;2.20;;
15474;SDS011;7839;50.462;9.678;2022-08-11T10:26:10;2.05;;;1.90;;
15474;SDS011;7839;50.462;9.678;2022-08-11T10:33:13;2.50;;;2.30;;
15474;SDS011;7839;50.462;9.678;2022-08-11T10:40:13;2.67;;;2.45;;
15474;SDS011;7839;50.462;9.678;2022-08-11T10:46:54;3.90;;;2.20;;
15474;SDS011;7839;50.462;9.678;2022-08-11T10:53:53;2.60;;;2.17;;
15474;SDS011;7839;50.462;9.678;2022-08-11T11:00:52;2.60;;;2.40;;
15474;SDS011;7839;50.462;9.678;2022-08-11T11:07:37;4.85;;;1.80;;
15474;SDS011;7839;50.462;9.678;2022-08-11T11:14:18;4.95;;;2.42;;
15474;SDS011;7839;50.462;9.678;2022-08-11T11:21:19;2.53;;;2.40;;
15474;SDS011;7839;50.462;9.678;2022-08-11T11:41:32;2.70;;;1.92;;
15474;SDS011;7839;50.462;9.678;2022-08-11T11:48:12;5.00;;;2.63;;
15474;SDS011;7839;50.462;9.678;2022-08-11T11:54:59;2.67;;;2.28;;
15474;SDS011;7839;50.462;9.678;2022-08-11T12:01:41;3.65;;;2.15;;
15474;SDS011;7839;50.462;9.678;2022-08-11T12:08:25;4.97;;;2.40;;
15474;SDS011;7839;50.462;9.678;2022-08-11T12:15:05;2.90;;;2.20;;
15474;SDS011;7839;50.462;9.678;2022-08-11T12:21:46;2.40;;;2.30;;
15474;SDS011;7839;50.462;9.678;2022-08-11T12:28:46;2.17;;;2.08;;
15474;SDS011;7839;50.462;9.678;2022-08-11T12:35:27;2.50;;;2.13;;
15474;SDS011;7839;50.462;9.678;2022-08-11T12:42:08;3.75;;;2.10;;
15474;SDS011;7839;50.462;9.678;2022-08-11T12:49:12;2.50;;;2.30;;
15474;SDS011;7839;50.462;9.678;2022-08-11T12:56:12;2.03;;;1.92;;
15474;SDS011;7839;50.462;9.678;2022-08-11T13:03:11;2.20;;;2.10;;
15474;SDS011;7839;50.462;9.678;2022-08-11T13:10:12;2.10;;;2.00;;
15474;SDS011;7839;50.462;9.678;2022-08-11T13:16:52;2.72;;;1.98;;
15474;SDS011;7839;50.462;9.678;2022-08-11T13:23:52;2.45;;;1.98;;
15474;SDS011;7839;50.462;9.678;2022-08-11T13:30:33;2.42;;;2.20;;
15474;SDS011;7839;50.462;9.678;2022-08-11T13:37:31;2.85;;;1.92;;
15474;SDS011;7839;50.462;9.678;2022-08-11T13:44:15;2.60;;;2.40;;
15474;SDS011;7839;50.462;9.678;2022-08-11T13:50:56;1.85;;;1.75;;
15474;SDS011;7839;50.462;9.678;2022-08-11T13:57:55;2.22;;;2.13;;
15474;SDS011;7839;50.462;9.678;2022-08-11T14:11:19;2.38;;;1.73;;
15474;SDS011;7839;50.462;9.678;2022-08-11T14:18:21;7.60;;;1.80;;
15474;SDS011;7839;50.462;9.678;2022-08-11T14:25:02;4.60;;;1.90;;
15474;SDS011;7839;50.462;9.678;2022-08-11T14:31:44;2.03;;;1.75;;
15474;SDS011;7839;50.462;9.678;2022-08-11T14:38:24;2.33;;;1.90;;
15474;SDS011;7839;50.462;9.678;2022-08-11T14:45:08;1.80;;;1.70;;
15474;SDS011;7839;50.462;9.678;2022-08-11T14:52:08;2.13;;;1.75;;
15474;SDS011;7839;50.462;9.678;2022-08-11T14:58:49;1.88;;;1.77;;
15474;SDS011;7839;50.462;9.678;2022-08-11T15:05:29;6.28;;;2.03;;
15474;SDS011;7839;50.462;9.678;2022-08-11T15:12:10;2.30;;;1.70;;
15474;SDS011;7839;50.462;9.678;2022-08-11T15:18:57;2.28;;;2.00;;
15474;SDS011;7839;50.462;9.678;2022-08-11T15:25:39;1.95;;;1.85;;
15474;SDS011;7839;50.462;9.678;2022-08-11T15:32:20;4.68;;;1.92;;
15474;SDS011;7839;50.462;9.678;2022-08-11T15:39:04;2.17;;;2.03;;
15474;SDS011;7839;50.462;9.678;2022-08-11T15:45:49;2.35;;;1.83;;
15474;SDS011;7839;50.462;9.678;2022-08-11T15:52:32;3.13;;;1.98;;
15474;SDS011;7839;50.462;9.678;2022-08-11T15:59:14;5.53;;;1.80;;
15474;SDS011;7839;50.462;9.678;2022-08-11T16:06:14;2.22;;;2.03;;
15474;SDS011;7839;50.462;9.678;2022-08-11T16:13:02;2.13;;;1.80;;
15474;SDS011;7839;50.462;9.678;2022-08-11T16:19:47;2.72;;;1.80;;
15474;SDS011;7839;50.462;9.678;2022-08-11T16:26:28;7.28;;;1.98;;
15474;SDS011;7839;50.462;9.678;2022-08-11T16:33:10;4.35;;;2.10;;
15474;SDS011;7839;50.462;9.678;2022-08-11T16:39:50;2.20;;;2.00;;
15474;SDS011;7839;50.462;9.678;2022-08-11T16:46:31;3.72;;;2.17;;
15474;SDS011;7839;50.462;9.678;2022-08-11T16:53:30;2.65;;;2.00;;
15474;SDS011;7839;50.462;9.678;2022-08-11T17:00:11;2.75;;;1.90;;
15474;SDS011;7839;50.462;9.678;2022-08-11T17:06:53;2.63;;;1.95;;
15474;SDS011;7839;50.462;9.678;2022-08-11T17:13:57;3.08;;;1.73;;
15474;SDS011;7839;50.462;9.678;2022-08-11T17:20:38;2.50;;;1.80;;
15474;SDS011;7839;50.462;9.678;2022-08-11T17:27:19;7.10;;;2.25;;
15474;SDS011;7839;50.462;9.678;2022-08-11T17:34:00;3.33;;;1.90;;
15474;SDS011;7839;50.462;9.678;2022-08-11T17:41:00;2.75;;;1.90;;
15474;SDS011;7839;50.462;9.678;2022-08-11T17:47:59;3.63;;;1.73;;
15474;SDS011;7839;50.462;9.678;2022-08-11T17:55:12;3.03;;;1.67;;
15474;SDS011;7839;50.462;9.678;2022-08-11T18:02:11;2.58;;;1.73;;
15474;SDS011;7839;50.462;9.678;2022-08-11T18:09:15;3.80;;;1.90;;
15474;SDS011;7839;50.462;9.678;2022-08-11T18:16:14;2.92;;;2.20;;
15474;SDS011;7839;50.462;9.678;2022-08-11T18:23:22;2.13;;;1.60;;
15474;SDS011;7839;50.462;9.678;2022-08-11T18:30:21;2.10;;;1.90;;
15474;SDS011;7839;50.462;9.678;2022-08-11T18:37:23;2.88;;;1.80;;
15474;SDS011;7839;50.462;9.678;2022-08-11T18:44:24;4.72;;;1.83;;
15474;SDS011;7839;50.462;9.678;2022-08-11T18:51:26;2.22;;;2.13;;
15474;SDS011;7839;50.462;9.678;2022-08-11T18:58:28;2.10;;;2.00;;
15474;SDS011;7839;50.462;9.678;2022-08-11T19:05:29;3.45;;;1.80;;
15474;SDS011;7839;50.462;9.678;2022-08-11T19:12:34;1.80;;;1.70;;
15474;SDS011;7839;50.462;9.678;2022-08-11T19:19:33;2.10;;;2.00;;
15474;SDS011;7839;50.462;9.678;2022-08-11T19:26:33;2.05;;;1.95;;
15474;SDS011;7839;50.462;9.678;2022-08-11T19:33:32;1.98;;;1.77;;
15474;SDS011;7839;50.462;9.678;2022-08-11T19:40:31;1.65;;;1.55;;
15474;SDS011;7839;50.462;9.678;2022-08-11T19:47:30;2.88;;;1.83;;
15474;SDS011;7839;50.462;9.678;2022-08-11T19:54:31;2.33;;;1.83;;
15474;SDS011;7839;50.462;9.678;2022-08-11T20:01:30;1.98;;;1.88;;
15474;SDS011;7839;50.462;9.678;2022-08-11T20:08:29;2.15;;;2.00;;
15474;SDS011;7839;50.462;9.678;2022-08-11T20:15:29;2.10;;;1.95;;
15474;SDS011;7839;50.462;9.678;2022-08-11T20:22:28;2.13;;;1.88;;
15474;SDS011;7839;50.462;9.678;2022-08-11T20:29:29;1.80;;;1.70;;
15474;SDS011;7839;50.462;9.678;2022-08-11T20:36:29;1.80;;;1.70;;
15474;SDS011;7839;50.462;9.678;2022-08-11T20:43:28;2.13;;;1.90;;
15474;SDS011;7839;50.462;9.678;2022-08-11T20:50:27;1.70;;;1.60;;
15474;SDS011;7839;50.462;9.678;2022-08-11T20:57:26;1.55;;;1.50;;
15474;SDS011;7839;50.462;9.678;2022-08-11T21:04:27;1.80;;;1.70;;
15474;SDS011;7839;50.462;9.678;2022-08-11T21:11:25;1.65;;;1.55;;
15474;SDS011;7839;50.462;9.678;2022-08-11T21:18:24;1.80;;;1.70;;
15474;SDS011;7839;50.462;9.678;2022-08-11T21:25:23;1.50;;;1.50;;
15474;SDS011;7839;50.462;9.678;2022-08-11T21:32:24;1.20;;;1.20;;
15474;SDS011;7839;50.462;9.678;2022-08-11T21:39:23;1.42;;;1.42;;
15474;SDS011;7839;50.462;9.678;2022-08-11T21:46:22;2.10;;;1.90;;
15474;SDS011;7839;50.462;9.678;2022-08-11T21:53:21;1.42;;;1.33;;
15474;SDS011;7839;50.462;9.678;2022-08-11T22:00:20;1.38;;;1.27;;
15474;SDS011;7839;50.462;9.678;2022-08-11T22:07:19;1.48;;;1.38;;
15474;SDS011;7839;50.462;9.678;2022-08-11T22:14:19;1.60;;;1.50;;
15474;SDS011;7839;50.462;9.678;2022-08-11T22:21:18;1.35;;;1.27;;
15474;SDS011;7839;50.462;9.678;2022-08-11T22:28:17;1.20;;;1.20;;
15474;SDS011;7839;50.462;9.678;2022-08-11T22:35:16;1.73;;;1.63;;
15474;SDS011;7839;50.462;9.678;2022-08-11T22:42:15;1.70;;;1.60;;
15474;SDS011;7839;50.462;9.678;2022-08-11T22:49:14;1.52;;;1.45;;
15474;SDS011;7839;50.462;9.678;2022-08-11T22:56:13;1.52;;;1.45;;
15474;SDS011;7839;50.462;9.678;2022-08-11T23:03:13;1.38;;;1.38;;
15474;SDS011;7839;50.462;9.678;2022-08-11T23:10:13;1.52;;;1.45;;
15474;SDS011;7839;50.462;9.678;2022-08-11T23:17:13;1.20;;;1.20;;
15474;SDS011;7839;50.462;9.678;2022-08-11T23:24:12;1.17;;;1.17;;
15474;SDS011;7839;50.462;9.678;2022-08-11T23:31:11;1.33;;;1.30;;
15474;SDS011;7839;50.462;9.678;2022-08-11T23:38:11;1.30;;;1.30;;
15474;SDS011;7839;50.462;9.678;2022-08-11T23:45:10;1.35;;;1.25;;
15474;SDS011;7839;50.462;9.678;2022-08-11T23:52:09;1.05;;;1.05;;
15474;SDS011;7839;50.462;9.678;2022-08-11T23:59:10;0.80;;;0.80;;
